Главная страница
METAR-TAF:

METAR-TAF

Аэропорты :

Улан-Батор, Монголия

Международный аэропорт Чингисхан

широта: 47-55N, долгота: 106-52E, высота над уровнем моря: 1306 м

Текущие метеонаблюдения

Эта сводка был подготовлена 31 минут назад, в 03:30 UTC
Ветер 4 Узел от южный
Температура -31°C
Влажность 68%
Давление 1025 hPa
Видимость 10 км и более
Нет облачности ниже 1500 м, и нет кучево-дождевой облачности

METAR: ZMUB 240330Z 19002MPS CAVOK M31/M35 Q1025 NOSIG RMK QFE661.0 66

Время: 12:01 (04:01 UTC)

Прогноз

Эта сводка был подготовлена 5 часа и 31 минут назад, в 22:30 UTC
Прогноз действительный с 24-го 00 UTC до 25-го 06 UTC
Ветер 4 Узел переменных направлений
Видимость: 6000 м
Отдельные облака на высоте 10000 фута
изменения
С 24-го 23 UTC до 25-го 01 UTC
Видимость: 3000 м
дым

TAF: ZMUB 232230Z 2400/2506 VRB02MPS 6000 SCT100 TXM24/2407Z TNM38/2423Z BECMG 2423/2501 3000 FU

Метеонаблюдения и прогнозы для более 4000 аэропортов (сводки METAR и TAF).

Имеющиеся станции представлены на карте желтыми и красными точками.

Чтобы увидеть название станции, наведите на нее мышь.

Затем щелкните, чтобы увидеть метеонаблюдения и метеопрогнозы.

Управление картой: чтобы увеличить масштаб, щелкните зеленые кнопки с черным крестиком; чтобы уменьшить масштаб, щелкните зеленую кнопку с тире; для просмотра соседних карт щелкайте зеленые стрелки.


METAR-TAF: